sensor_id;sensor_type;location;lat;lon;timestamp;P1;durP1;ratioP1;P2;durP2;ratioP2
3121;SDS011;1571;52.524;14.104;2022-08-19T00:02:00;9.03;;;8.33;;
3121;SDS011;1571;52.524;14.104;2022-08-19T00:04:29;11.03;;;9.97;;
3121;SDS011;1571;52.524;14.104;2022-08-19T00:07:01;10.43;;;9.53;;
3121;SDS011;1571;52.524;14.104;2022-08-19T00:09:30;9.20;;;8.50;;
3121;SDS011;1571;52.524;14.104;2022-08-19T00:12:00;9.53;;;8.73;;
3121;SDS011;1571;52.524;14.104;2022-08-19T00:14:29;9.23;;;8.53;;
3121;SDS011;1571;52.524;14.104;2022-08-19T00:16:58;8.87;;;8.17;;
3121;SDS011;1571;52.524;14.104;2022-08-19T00:19:29;10.67;;;9.67;;
3121;SDS011;1571;52.524;14.104;2022-08-19T00:21:58;9.93;;;9.03;;
3121;SDS011;1571;52.524;14.104;2022-08-19T00:24:27;9.67;;;8.97;;
3121;SDS011;1571;52.524;14.104;2022-08-19T00:26:55;11.13;;;10.20;;
3121;SDS011;1571;52.524;14.104;2022-08-19T00:29:45;13.23;;;11.47;;
3121;SDS011;1571;52.524;14.104;2022-08-19T00:32:18;14.60;;;11.50;;
3121;SDS011;1571;52.524;14.104;2022-08-19T00:34:47;14.83;;;11.47;;
3121;SDS011;1571;52.524;14.104;2022-08-19T00:37:15;27.87;;;15.70;;
3121;SDS011;1571;52.524;14.104;2022-08-19T00:39:44;21.53;;;14.93;;
3121;SDS011;1571;52.524;14.104;2022-08-19T00:42:15;18.53;;;16.80;;
3121;SDS011;1571;52.524;14.104;2022-08-19T00:44:43;21.97;;;19.67;;
3121;SDS011;1571;52.524;14.104;2022-08-19T00:47:13;21.17;;;18.23;;
3121;SDS011;1571;52.524;14.104;2022-08-19T00:49:43;18.00;;;16.20;;
3121;SDS011;1571;52.524;14.104;2022-08-19T00:52:18;21.87;;;17.70;;
3121;SDS011;1571;52.524;14.104;2022-08-19T00:54:49;20.10;;;18.17;;
3121;SDS011;1571;52.524;14.104;2022-08-19T00:57:20;20.83;;;18.40;;
3121;SDS011;1571;52.524;14.104;2022-08-19T00:59:54;21.20;;;19.00;;
3121;SDS011;1571;52.524;14.104;2022-08-19T01:02:30;22.37;;;20.07;;
3121;SDS011;1571;52.524;14.104;2022-08-19T01:05:00;21.80;;;19.60;;
3121;SDS011;1571;52.524;14.104;2022-08-19T01:07:31;22.27;;;20.07;;
3121;SDS011;1571;52.524;14.104;2022-08-19T01:10:05;24.50;;;21.13;;
3121;SDS011;1571;52.524;14.104;2022-08-19T01:12:36;21.97;;;19.93;;
3121;SDS011;1571;52.524;14.104;2022-08-19T01:15:05;22.67;;;20.40;;
3121;SDS011;1571;52.524;14.104;2022-08-19T01:17:38;21.53;;;19.10;;
3121;SDS011;1571;52.524;14.104;2022-08-19T01:20:10;22.87;;;20.50;;
3121;SDS011;1571;52.524;14.104;2022-08-19T01:22:42;21.10;;;19.00;;
3121;SDS011;1571;52.524;14.104;2022-08-19T01:25:13;23.47;;;21.27;;
3121;SDS011;1571;52.524;14.104;2022-08-19T01:27:44;21.13;;;19.13;;
3121;SDS011;1571;52.524;14.104;2022-08-19T01:30:16;21.07;;;18.87;;
3121;SDS011;1571;52.524;14.104;2022-08-19T01:32:49;23.27;;;20.93;;
3121;SDS011;1571;52.524;14.104;2022-08-19T01:35:18;23.00;;;20.70;;
3121;SDS011;1571;52.524;14.104;2022-08-19T01:37:49;23.13;;;20.87;;
3121;SDS011;1571;52.524;14.104;2022-08-19T01:40:19;25.60;;;23.30;;
3121;SDS011;1571;52.524;14.104;2022-08-19T01:42:49;25.40;;;23.10;;
3121;SDS011;1571;52.524;14.104;2022-08-19T01:45:20;22.73;;;20.10;;
3121;SDS011;1571;52.524;14.104;2022-08-19T01:47:52;19.57;;;17.57;;
3121;SDS011;1571;52.524;14.104;2022-08-19T01:50:28;21.73;;;19.73;;
3121;SDS011;1571;52.524;14.104;2022-08-19T01:52:59;22.30;;;20.00;;
3121;SDS011;1571;52.524;14.104;2022-08-19T01:55:34;24.13;;;21.57;;
3121;SDS011;1571;52.524;14.104;2022-08-19T01:58:08;22.87;;;20.70;;
3121;SDS011;1571;52.524;14.104;2022-08-19T02:00:40;21.97;;;19.73;;
3121;SDS011;1571;52.524;14.104;2022-08-19T02:03:11;24.87;;;22.50;;
3121;SDS011;1571;52.524;14.104;2022-08-19T02:05:40;21.87;;;19.97;;
3121;SDS011;1571;52.524;14.104;2022-08-19T02:08:10;24.03;;;21.63;;
3121;SDS011;1571;52.524;14.104;2022-08-19T02:10:39;22.00;;;19.70;;
3121;SDS011;1571;52.524;14.104;2022-08-19T02:13:09;23.23;;;21.17;;
3121;SDS011;1571;52.524;14.104;2022-08-19T02:15:38;25.33;;;22.83;;
3121;SDS011;1571;52.524;14.104;2022-08-19T02:18:07;26.83;;;23.00;;
3121;SDS011;1571;52.524;14.104;2022-08-19T02:20:35;25.23;;;22.60;;
3121;SDS011;1571;52.524;14.104;2022-08-19T02:23:05;24.40;;;22.10;;
3121;SDS011;1571;52.524;14.104;2022-08-19T02:25:43;22.63;;;20.40;;
3121;SDS011;1571;52.524;14.104;2022-08-19T02:28:14;22.63;;;20.43;;
3121;SDS011;1571;52.524;14.104;2022-08-19T02:30:45;19.93;;;18.13;;
3121;SDS011;1571;52.524;14.104;2022-08-19T02:33:15;22.07;;;20.17;;
3121;SDS011;1571;52.524;14.104;2022-08-19T02:35:44;20.40;;;18.43;;
3121;SDS011;1571;52.524;14.104;2022-08-19T02:38:13;19.80;;;18.07;;
3121;SDS011;1571;52.524;14.104;2022-08-19T02:40:56;19.53;;;17.73;;
3121;SDS011;1571;52.524;14.104;2022-08-19T02:43:27;22.03;;;20.00;;
3121;SDS011;1571;52.524;14.104;2022-08-19T02:46:00;22.73;;;20.73;;
3121;SDS011;1571;52.524;14.104;2022-08-19T02:48:29;21.50;;;19.40;;
3121;SDS011;1571;52.524;14.104;2022-08-19T02:50:59;22.33;;;20.00;;
3121;SDS011;1571;52.524;14.104;2022-08-19T02:53:28;23.50;;;21.30;;
3121;SDS011;1571;52.524;14.104;2022-08-19T02:55:58;23.47;;;21.17;;
3121;SDS011;1571;52.524;14.104;2022-08-19T02:58:27;23.60;;;21.17;;
3121;SDS011;1571;52.524;14.104;2022-08-19T03:00:56;23.60;;;21.20;;
3121;SDS011;1571;52.524;14.104;2022-08-19T03:03:24;23.27;;;21.10;;
3121;SDS011;1571;52.524;14.104;2022-08-19T03:06:02;26.17;;;23.47;;
3121;SDS011;1571;52.524;14.104;2022-08-19T03:08:35;23.77;;;21.40;;
3121;SDS011;1571;52.524;14.104;2022-08-19T03:11:06;22.07;;;19.93;;
3121;SDS011;1571;52.524;14.104;2022-08-19T03:13:39;25.30;;;22.80;;
3121;SDS011;1571;52.524;14.104;2022-08-19T03:16:10;23.97;;;21.90;;
3121;SDS011;1571;52.524;14.104;2022-08-19T03:18:39;22.00;;;20.10;;
3121;SDS011;1571;52.524;14.104;2022-08-19T03:21:07;24.77;;;22.10;;
3121;SDS011;1571;52.524;14.104;2022-08-19T03:23:38;24.37;;;22.20;;
3121;SDS011;1571;52.524;14.104;2022-08-19T03:26:08;23.60;;;21.20;;
3121;SDS011;1571;52.524;14.104;2022-08-19T03:28:43;21.90;;;19.97;;
3121;SDS011;1571;52.524;14.104;2022-08-19T03:31:17;21.77;;;19.63;;
3121;SDS011;1571;52.524;14.104;2022-08-19T03:34:08;22.27;;;20.17;;
3121;SDS011;1571;52.524;14.104;2022-08-19T03:36:39;24.93;;;22.30;;
3121;SDS011;1571;52.524;14.104;2022-08-19T03:39:07;25.53;;;23.07;;
3121;SDS011;1571;52.524;14.104;2022-08-19T03:41:39;22.20;;;20.10;;
3121;SDS011;1571;52.524;14.104;2022-08-19T03:44:12;24.43;;;22.07;;
3121;SDS011;1571;52.524;14.104;2022-08-19T03:46:44;24.43;;;22.07;;
3121;SDS011;1571;52.524;14.104;2022-08-19T03:49:14;26.13;;;23.67;;
3121;SDS011;1571;52.524;14.104;2022-08-19T03:51:44;27.20;;;24.60;;
3121;SDS011;1571;52.524;14.104;2022-08-19T03:54:13;26.53;;;24.10;;
3121;SDS011;1571;52.524;14.104;2022-08-19T03:56:44;26.23;;;23.83;;
3121;SDS011;1571;52.524;14.104;2022-08-19T03:59:16;26.33;;;23.93;;
3121;SDS011;1571;52.524;14.104;2022-08-19T04:01:46;25.40;;;23.00;;
3121;SDS011;1571;52.524;14.104;2022-08-19T04:04:15;26.30;;;23.67;;
3121;SDS011;1571;52.524;14.104;2022-08-19T04:06:45;25.07;;;21.50;;
3121;SDS011;1571;52.524;14.104;2022-08-19T04:09:14;25.13;;;22.77;;
3121;SDS011;1571;52.524;14.104;2022-08-19T04:11:45;23.30;;;20.90;;
3121;SDS011;1571;52.524;14.104;2022-08-19T04:14:17;24.33;;;22.10;;
3121;SDS011;1571;52.524;14.104;2022-08-19T04:16:47;25.97;;;23.60;;
3121;SDS011;1571;52.524;14.104;2022-08-19T04:19:16;23.63;;;21.43;;
3121;SDS011;1571;52.524;14.104;2022-08-19T04:21:46;26.77;;;24.27;;
3121;SDS011;1571;52.524;14.104;2022-08-19T04:24:16;26.60;;;23.93;;
3121;SDS011;1571;52.524;14.104;2022-08-19T04:26:46;25.50;;;23.10;;
3121;SDS011;1571;52.524;14.104;2022-08-19T04:29:16;25.67;;;23.37;;
3121;SDS011;1571;52.524;14.104;2022-08-19T04:31:49;25.03;;;22.80;;
3121;SDS011;1571;52.524;14.104;2022-08-19T04:34:19;27.43;;;24.70;;
3121;SDS011;1571;52.524;14.104;2022-08-19T04:36:50;24.57;;;22.17;;
3121;SDS011;1571;52.524;14.104;2022-08-19T04:39:21;25.97;;;23.37;;
3121;SDS011;1571;52.524;14.104;2022-08-19T04:42:12;26.10;;;23.80;;
3121;SDS011;1571;52.524;14.104;2022-08-19T04:44:59;24.73;;;22.33;;
3121;SDS011;1571;52.524;14.104;2022-08-19T04:47:27;23.00;;;20.80;;
3121;SDS011;1571;52.524;14.104;2022-08-19T04:50:19;23.80;;;21.57;;
3121;SDS011;1571;52.524;14.104;2022-08-19T04:52:49;22.70;;;20.67;;
3121;SDS011;1571;52.524;14.104;2022-08-19T04:55:18;22.27;;;20.07;;
3121;SDS011;1571;52.524;14.104;2022-08-19T04:57:48;22.80;;;20.67;;
3121;SDS011;1571;52.524;14.104;2022-08-19T05:00:17;23.37;;;21.47;;
3121;SDS011;1571;52.524;14.104;2022-08-19T05:02:45;22.83;;;20.80;;
3121;SDS011;1571;52.524;14.104;2022-08-19T05:05:16;23.23;;;21.13;;
3121;SDS011;1571;52.524;14.104;2022-08-19T05:07:44;22.00;;;20.00;;
3121;SDS011;1571;52.524;14.104;2022-08-19T05:10:12;24.17;;;21.77;;
3121;SDS011;1571;52.524;14.104;2022-08-19T05:12:40;22.50;;;20.30;;
3121;SDS011;1571;52.524;14.104;2022-08-19T05:15:10;22.20;;;20.40;;
3121;SDS011;1571;52.524;14.104;2022-08-19T05:17:38;22.23;;;20.23;;
3121;SDS011;1571;52.524;14.104;2022-08-19T05:20:27;23.47;;;21.27;;
3121;SDS011;1571;52.524;14.104;2022-08-19T05:23:13;25.50;;;23.27;;
3121;SDS011;1571;52.524;14.104;2022-08-19T05:25:48;25.13;;;22.83;;
3121;SDS011;1571;52.524;14.104;2022-08-19T05:28:18;22.27;;;20.23;;
3121;SDS011;1571;52.524;14.104;2022-08-19T05:30:48;26.03;;;23.23;;
3121;SDS011;1571;52.524;14.104;2022-08-19T05:33:17;22.80;;;20.87;;
3121;SDS011;1571;52.524;14.104;2022-08-19T05:35:47;23.50;;;21.40;;
3121;SDS011;1571;52.524;14.104;2022-08-19T05:38:16;24.73;;;22.60;;
3121;SDS011;1571;52.524;14.104;2022-08-19T05:40:45;25.53;;;23.03;;
3121;SDS011;1571;52.524;14.104;2022-08-19T05:43:14;24.90;;;22.50;;
3121;SDS011;1571;52.524;14.104;2022-08-19T05:45:43;25.50;;;22.93;;
3121;SDS011;1571;52.524;14.104;2022-08-19T05:48:13;24.67;;;22.20;;
3121;SDS011;1571;52.524;14.104;2022-08-19T05:50:44;25.43;;;22.93;;
3121;SDS011;1571;52.524;14.104;2022-08-19T05:53:12;25.00;;;22.80;;
3121;SDS011;1571;52.524;14.104;2022-08-19T05:55:43;28.07;;;25.47;;
3121;SDS011;1571;52.524;14.104;2022-08-19T05:58:11;28.37;;;25.50;;
3121;SDS011;1571;52.524;14.104;2022-08-19T06:00:40;26.80;;;24.20;;
3121;SDS011;1571;52.524;14.104;2022-08-19T06:03:12;24.57;;;22.27;;
3121;SDS011;1571;52.524;14.104;2022-08-19T06:05:41;27.43;;;24.80;;
3121;SDS011;1571;52.524;14.104;2022-08-19T06:08:18;26.80;;;24.50;;
3121;SDS011;1571;52.524;14.104;2022-08-19T06:11:14;27.97;;;25.23;;
3121;SDS011;1571;52.524;14.104;2022-08-19T06:13:46;27.93;;;25.30;;
3121;SDS011;1571;52.524;14.104;2022-08-19T06:16:25;27.47;;;25.00;;
3121;SDS011;1571;52.524;14.104;2022-08-19T06:18:56;25.80;;;23.23;;
3121;SDS011;1571;52.524;14.104;2022-08-19T06:21:26;27.53;;;25.13;;
3121;SDS011;1571;52.524;14.104;2022-08-19T06:23:55;28.43;;;25.80;;
3121;SDS011;1571;52.524;14.104;2022-08-19T06:26:24;28.63;;;25.93;;
3121;SDS011;1571;52.524;14.104;2022-08-19T06:28:54;27.60;;;24.80;;
3121;SDS011;1571;52.524;14.104;2022-08-19T06:31:26;27.20;;;24.33;;
3121;SDS011;1571;52.524;14.104;2022-08-19T06:33:57;29.50;;;26.70;;
3121;SDS011;1571;52.524;14.104;2022-08-19T06:36:26;28.83;;;26.00;;
3121;SDS011;1571;52.524;14.104;2022-08-19T06:38:58;29.10;;;26.20;;
3121;SDS011;1571;52.524;14.104;2022-08-19T06:41:28;28.57;;;26.07;;
3121;SDS011;1571;52.524;14.104;2022-08-19T06:43:57;30.97;;;27.77;;
3121;SDS011;1571;52.524;14.104;2022-08-19T06:46:26;31.20;;;28.17;;
3121;SDS011;1571;52.524;14.104;2022-08-19T06:49:00;29.23;;;26.67;;
3121;SDS011;1571;52.524;14.104;2022-08-19T06:51:28;30.60;;;27.70;;
3121;SDS011;1571;52.524;14.104;2022-08-19T06:53:59;31.63;;;28.53;;
3121;SDS011;1571;52.524;14.104;2022-08-19T06:56:31;30.17;;;27.17;;
3121;SDS011;1571;52.524;14.104;2022-08-19T06:59:02;31.60;;;28.30;;
3121;SDS011;1571;52.524;14.104;2022-08-19T07:01:34;33.47;;;30.07;;
3121;SDS011;1571;52.524;14.104;2022-08-19T07:04:06;38.00;;;33.37;;
3121;SDS011;1571;52.524;14.104;2022-08-19T07:06:38;31.13;;;27.83;;
3121;SDS011;1571;52.524;14.104;2022-08-19T07:09:11;33.60;;;29.13;;
3121;SDS011;1571;52.524;14.104;2022-08-19T07:11:44;30.73;;;28.03;;
3121;SDS011;1571;52.524;14.104;2022-08-19T07:14:14;31.50;;;28.63;;
3121;SDS011;1571;52.524;14.104;2022-08-19T07:16:46;30.40;;;27.53;;
3121;SDS011;1571;52.524;14.104;2022-08-19T07:19:19;32.40;;;29.10;;
3121;SDS011;1571;52.524;14.104;2022-08-19T07:21:48;33.10;;;29.87;;
3121;SDS011;1571;52.524;14.104;2022-08-19T07:24:20;32.57;;;29.37;;
3121;SDS011;1571;52.524;14.104;2022-08-19T07:26:51;30.87;;;28.07;;
3121;SDS011;1571;52.524;14.104;2022-08-19T07:29:21;32.30;;;29.30;;
3121;SDS011;1571;52.524;14.104;2022-08-19T07:31:54;33.27;;;30.17;;
3121;SDS011;1571;52.524;14.104;2022-08-19T07:34:28;32.07;;;28.77;;
3121;SDS011;1571;52.524;14.104;2022-08-19T07:36:58;30.77;;;27.87;;
3121;SDS011;1571;52.524;14.104;2022-08-19T07:39:27;30.97;;;28.17;;
3121;SDS011;1571;52.524;14.104;2022-08-19T07:41:59;29.53;;;26.80;;
3121;SDS011;1571;52.524;14.104;2022-08-19T07:44:28;30.80;;;27.80;;
3121;SDS011;1571;52.524;14.104;2022-08-19T07:46:57;28.93;;;26.20;;
3121;SDS011;1571;52.524;14.104;2022-08-19T07:49:28;29.23;;;26.43;;
3121;SDS011;1571;52.524;14.104;2022-08-19T07:51:57;28.13;;;25.57;;
3121;SDS011;1571;52.524;14.104;2022-08-19T07:54:28;26.30;;;23.80;;
3121;SDS011;1571;52.524;14.104;2022-08-19T07:57:01;26.40;;;24.00;;
3121;SDS011;1571;52.524;14.104;2022-08-19T07:59:30;27.90;;;25.43;;
3121;SDS011;1571;52.524;14.104;2022-08-19T08:01:58;27.60;;;25.00;;
3121;SDS011;1571;52.524;14.104;2022-08-19T08:04:29;26.30;;;23.90;;
3121;SDS011;1571;52.524;14.104;2022-08-19T08:07:24;26.97;;;24.10;;
3121;SDS011;1571;52.524;14.104;2022-08-19T08:10:12;27.10;;;24.60;;
3121;SDS011;1571;52.524;14.104;2022-08-19T08:12:47;25.07;;;22.77;;
3121;SDS011;1571;52.524;14.104;2022-08-19T08:15:36;26.77;;;24.43;;
3121;SDS011;1571;52.524;14.104;2022-08-19T08:18:09;25.67;;;23.10;;
3121;SDS011;1571;52.524;14.104;2022-08-19T08:20:38;26.97;;;24.20;;
3121;SDS011;1571;52.524;14.104;2022-08-19T08:23:06;26.37;;;23.60;;
3121;SDS011;1571;52.524;14.104;2022-08-19T08:25:53;23.90;;;21.90;;
3121;SDS011;1571;52.524;14.104;2022-08-19T08:28:23;26.07;;;23.67;;
3121;SDS011;1571;52.524;14.104;2022-08-19T08:30:56;24.60;;;22.50;;
3121;SDS011;1571;52.524;14.104;2022-08-19T08:33:27;25.00;;;22.90;;
3121;SDS011;1571;52.524;14.104;2022-08-19T08:36:04;25.80;;;23.30;;
3121;SDS011;1571;52.524;14.104;2022-08-19T08:38:33;24.80;;;22.50;;
3121;SDS011;1571;52.524;14.104;2022-08-19T08:41:09;25.10;;;22.90;;
3121;SDS011;1571;52.524;14.104;2022-08-19T08:43:47;25.17;;;22.77;;
3121;SDS011;1571;52.524;14.104;2022-08-19T08:46:19;26.47;;;24.07;;
3121;SDS011;1571;52.524;14.104;2022-08-19T08:49:01;27.20;;;24.80;;
3121;SDS011;1571;52.524;14.104;2022-08-19T08:51:35;24.67;;;22.03;;
3121;SDS011;1571;52.524;14.104;2022-08-19T08:54:12;26.00;;;23.40;;
3121;SDS011;1571;52.524;14.104;2022-08-19T08:56:43;24.53;;;22.30;;
3121;SDS011;1571;52.524;14.104;2022-08-19T08:59:14;23.67;;;21.33;;
3121;SDS011;1571;52.524;14.104;2022-08-19T09:01:47;22.07;;;20.10;;
3121;SDS011;1571;52.524;14.104;2022-08-19T09:04:16;23.37;;;21.27;;
3121;SDS011;1571;52.524;14.104;2022-08-19T09:06:47;23.27;;;20.97;;
3121;SDS011;1571;52.524;14.104;2022-08-19T09:09:22;22.73;;;20.60;;
3121;SDS011;1571;52.524;14.104;2022-08-19T09:12:00;20.27;;;18.37;;
3121;SDS011;1571;52.524;14.104;2022-08-19T09:14:40;19.60;;;17.60;;
3121;SDS011;1571;52.524;14.104;2022-08-19T09:17:18;18.33;;;16.70;;
3121;SDS011;1571;52.524;14.104;2022-08-19T09:19:58;21.63;;;19.83;;
3121;SDS011;1571;52.524;14.104;2022-08-19T09:22:36;23.93;;;21.57;;
3121;SDS011;1571;52.524;14.104;2022-08-19T09:25:07;20.70;;;18.90;;
3121;SDS011;1571;52.524;14.104;2022-08-19T09:27:37;22.43;;;20.73;;
3121;SDS011;1571;52.524;14.104;2022-08-19T09:30:11;22.40;;;20.43;;
3121;SDS011;1571;52.524;14.104;2022-08-19T09:32:43;22.70;;;20.60;;
3121;SDS011;1571;52.524;14.104;2022-08-19T09:35:12;23.53;;;21.47;;
3121;SDS011;1571;52.524;14.104;2022-08-19T09:37:43;24.47;;;22.47;;
3121;SDS011;1571;52.524;14.104;2022-08-19T09:40:12;25.60;;;23.10;;
3121;SDS011;1571;52.524;14.104;2022-08-19T09:42:41;23.67;;;21.53;;
3121;SDS011;1571;52.524;14.104;2022-08-19T09:45:17;24.60;;;22.10;;
3121;SDS011;1571;52.524;14.104;2022-08-19T09:47:48;22.80;;;20.90;;
3121;SDS011;1571;52.524;14.104;2022-08-19T09:50:20;21.50;;;19.70;;
3121;SDS011;1571;52.524;14.104;2022-08-19T09:52:51;20.80;;;18.47;;
3121;SDS011;1571;52.524;14.104;2022-08-19T09:55:24;22.43;;;20.33;;
3121;SDS011;1571;52.524;14.104;2022-08-19T09:57:57;23.47;;;21.00;;
3121;SDS011;1571;52.524;14.104;2022-08-19T10:00:25;22.03;;;20.10;;
3121;SDS011;1571;52.524;14.104;2022-08-19T10:02:53;23.27;;;21.20;;
3121;SDS011;1571;52.524;14.104;2022-08-19T10:05:22;22.83;;;20.73;;
3121;SDS011;1571;52.524;14.104;2022-08-19T10:08:09;24.40;;;22.20;;
3121;SDS011;1571;52.524;14.104;2022-08-19T10:10:40;23.43;;;20.87;;
3121;SDS011;1571;52.524;14.104;2022-08-19T10:13:13;23.87;;;21.67;;
3121;SDS011;1571;52.524;14.104;2022-08-19T10:15:42;23.37;;;21.47;;
3121;SDS011;1571;52.524;14.104;2022-08-19T10:18:15;25.53;;;23.27;;
3121;SDS011;1571;52.524;14.104;2022-08-19T10:20:45;27.30;;;25.00;;
3121;SDS011;1571;52.524;14.104;2022-08-19T10:23:20;25.23;;;23.20;;
3121;SDS011;1571;52.524;14.104;2022-08-19T10:25:49;26.23;;;23.70;;
3121;SDS011;1571;52.524;14.104;2022-08-19T10:28:20;27.47;;;25.00;;
3121;SDS011;1571;52.524;14.104;2022-08-19T10:30:49;26.87;;;24.60;;
3121;SDS011;1571;52.524;14.104;2022-08-19T10:33:18;27.87;;;25.07;;
3121;SDS011;1571;52.524;14.104;2022-08-19T10:36:07;25.70;;;23.50;;
3121;SDS011;1571;52.524;14.104;2022-08-19T10:38:38;27.80;;;25.30;;
3121;SDS011;1571;52.524;14.104;2022-08-19T10:41:18;27.97;;;25.57;;
3121;SDS011;1571;52.524;14.104;2022-08-19T10:43:50;30.67;;;27.87;;
3121;SDS011;1571;52.524;14.104;2022-08-19T10:46:19;28.23;;;25.83;;
3121;SDS011;1571;52.524;14.104;2022-08-19T10:48:51;30.00;;;27.47;;
3121;SDS011;1571;52.524;14.104;2022-08-19T10:51:20;29.50;;;27.10;;
3121;SDS011;1571;52.524;14.104;2022-08-19T10:54:15;29.10;;;26.60;;
3121;SDS011;1571;52.524;14.104;2022-08-19T10:56:59;29.23;;;26.67;;
3121;SDS011;1571;52.524;14.104;2022-08-19T10:59:27;26.63;;;24.43;;
3121;SDS011;1571;52.524;14.104;2022-08-19T11:02:02;29.93;;;27.33;;
3121;SDS011;1571;52.524;14.104;2022-08-19T11:04:32;26.73;;;24.30;;
3121;SDS011;1571;52.524;14.104;2022-08-19T11:07:02;28.63;;;25.83;;
3121;SDS011;1571;52.524;14.104;2022-08-19T11:09:36;27.43;;;25.23;;
3121;SDS011;1571;52.524;14.104;2022-08-19T11:12:06;29.97;;;27.37;;
3121;SDS011;1571;52.524;14.104;2022-08-19T11:14:37;30.13;;;27.53;;
3121;SDS011;1571;52.524;14.104;2022-08-19T11:17:05;30.83;;;28.20;;
3121;SDS011;1571;52.524;14.104;2022-08-19T11:19:34;28.30;;;26.00;;
3121;SDS011;1571;52.524;14.104;2022-08-19T11:22:02;27.93;;;25.53;;
3121;SDS011;1571;52.524;14.104;2022-08-19T11:24:31;31.83;;;28.63;;
3121;SDS011;1571;52.524;14.104;2022-08-19T11:27:03;30.03;;;27.17;;
3121;SDS011;1571;52.524;14.104;2022-08-19T11:29:32;28.00;;;25.63;;
3121;SDS011;1571;52.524;14.104;2022-08-19T11:32:03;29.53;;;27.00;;
3121;SDS011;1571;52.524;14.104;2022-08-19T11:34:32;29.63;;;26.90;;
3121;SDS011;1571;52.524;14.104;2022-08-19T11:37:03;30.83;;;28.13;;
3121;SDS011;1571;52.524;14.104;2022-08-19T11:39:34;26.53;;;24.33;;
3121;SDS011;1571;52.524;14.104;2022-08-19T11:42:04;28.07;;;25.57;;
3121;SDS011;1571;52.524;14.104;2022-08-19T11:44:54;30.07;;;27.27;;
3121;SDS011;1571;52.524;14.104;2022-08-19T11:47:23;28.63;;;26.10;;
3121;SDS011;1571;52.524;14.104;2022-08-19T11:49:52;27.20;;;25.07;;
3121;SDS011;1571;52.524;14.104;2022-08-19T11:52:21;28.57;;;26.10;;
3121;SDS011;1571;52.524;14.104;2022-08-19T11:54:51;28.30;;;26.10;;
3121;SDS011;1571;52.524;14.104;2022-08-19T11:57:19;30.53;;;28.03;;
3121;SDS011;1571;52.524;14.104;2022-08-19T11:59:49;30.50;;;27.80;;
3121;SDS011;1571;52.524;14.104;2022-08-19T12:02:19;33.27;;;30.40;;
3121;SDS011;1571;52.524;14.104;2022-08-19T12:04:48;31.23;;;28.63;;
3121;SDS011;1571;52.524;14.104;2022-08-19T12:07:17;27.50;;;25.40;;
3121;SDS011;1571;52.524;14.104;2022-08-19T12:09:45;28.43;;;26.03;;
3121;SDS011;1571;52.524;14.104;2022-08-19T12:12:16;27.00;;;24.83;;
3121;SDS011;1571;52.524;14.104;2022-08-19T12:14:44;30.30;;;27.57;;
3121;SDS011;1571;52.524;14.104;2022-08-19T12:17:13;29.77;;;27.27;;
3121;SDS011;1571;52.524;14.104;2022-08-19T12:19:42;29.37;;;26.67;;
3121;SDS011;1571;52.524;14.104;2022-08-19T12:22:10;29.70;;;27.17;;
3121;SDS011;1571;52.524;14.104;2022-08-19T12:24:39;27.77;;;25.67;;
3121;SDS011;1571;52.524;14.104;2022-08-19T12:27:07;27.50;;;25.30;;
3121;SDS011;1571;52.524;14.104;2022-08-19T12:29:40;28.57;;;26.27;;
3121;SDS011;1571;52.524;14.104;2022-08-19T12:32:08;26.87;;;24.73;;
3121;SDS011;1571;52.524;14.104;2022-08-19T12:34:38;26.93;;;24.73;;
3121;SDS011;1571;52.524;14.104;2022-08-19T12:37:06;28.20;;;25.67;;
3121;SDS011;1571;52.524;14.104;2022-08-19T12:39:36;27.57;;;25.30;;
3121;SDS011;1571;52.524;14.104;2022-08-19T12:42:06;27.00;;;24.63;;
3121;SDS011;1571;52.524;14.104;2022-08-19T12:44:35;27.23;;;24.90;;
3121;SDS011;1571;52.524;14.104;2022-08-19T12:47:08;27.27;;;24.97;;
3121;SDS011;1571;52.524;14.104;2022-08-19T12:49:38;26.83;;;24.60;;
3121;SDS011;1571;52.524;14.104;2022-08-19T12:52:22;24.03;;;22.23;;
3121;SDS011;1571;52.524;14.104;2022-08-19T12:54:51;26.23;;;24.10;;
3121;SDS011;1571;52.524;14.104;2022-08-19T12:57:21;25.17;;;23.17;;
3121;SDS011;1571;52.524;14.104;2022-08-19T12:59:59;25.33;;;23.27;;
3121;SDS011;1571;52.524;14.104;2022-08-19T13:02:32;25.43;;;23.10;;
3121;SDS011;1571;52.524;14.104;2022-08-19T13:05:05;24.50;;;22.50;;
3121;SDS011;1571;52.524;14.104;2022-08-19T13:07:36;24.00;;;22.10;;
3121;SDS011;1571;52.524;14.104;2022-08-19T13:10:06;26.83;;;24.70;;
3121;SDS011;1571;52.524;14.104;2022-08-19T13:12:35;27.20;;;25.10;;
3121;SDS011;1571;52.524;14.104;2022-08-19T13:15:04;24.73;;;22.60;;
3121;SDS011;1571;52.524;14.104;2022-08-19T13:17:38;24.03;;;22.20;;
3121;SDS011;1571;52.524;14.104;2022-08-19T13:20:08;23.73;;;21.93;;
3121;SDS011;1571;52.524;14.104;2022-08-19T13:22:38;22.90;;;20.90;;
3121;SDS011;1571;52.524;14.104;2022-08-19T13:25:07;23.60;;;21.63;;
3121;SDS011;1571;52.524;14.104;2022-08-19T13:27:36;22.63;;;20.93;;
3121;SDS011;1571;52.524;14.104;2022-08-19T13:30:06;22.57;;;20.70;;
3121;SDS011;1571;52.524;14.104;2022-08-19T13:32:55;21.53;;;19.83;;
3121;SDS011;1571;52.524;14.104;2022-08-19T13:35:43;21.07;;;19.47;;
3121;SDS011;1571;52.524;14.104;2022-08-19T13:38:14;22.27;;;20.57;;
3121;SDS011;1571;52.524;14.104;2022-08-19T13:40:44;23.03;;;21.20;;
3121;SDS011;1571;52.524;14.104;2022-08-19T13:43:13;17.27;;;15.87;;
3121;SDS011;1571;52.524;14.104;2022-08-19T13:45:49;17.87;;;16.27;;
3121;SDS011;1571;52.524;14.104;2022-08-19T13:48:21;17.77;;;16.37;;
3121;SDS011;1571;52.524;14.104;2022-08-19T13:50:50;16.03;;;14.73;;
3121;SDS011;1571;52.524;14.104;2022-08-19T13:53:18;15.30;;;14.23;;
3121;SDS011;1571;52.524;14.104;2022-08-19T13:55:46;15.47;;;14.07;;
3121;SDS011;1571;52.524;14.104;2022-08-19T13:58:16;15.40;;;14.10;;
3121;SDS011;1571;52.524;14.104;2022-08-19T14:00:45;14.60;;;13.40;;
3121;SDS011;1571;52.524;14.104;2022-08-19T14:03:15;16.23;;;13.23;;
3121;SDS011;1571;52.524;14.104;2022-08-19T14:05:44;15.17;;;13.97;;
3121;SDS011;1571;52.524;14.104;2022-08-19T14:08:13;15.33;;;14.10;;
3121;SDS011;1571;52.524;14.104;2022-08-19T14:10:42;14.37;;;13.00;;
3121;SDS011;1571;52.524;14.104;2022-08-19T14:13:13;15.53;;;14.20;;
3121;SDS011;1571;52.524;14.104;2022-08-19T14:15:42;12.57;;;11.67;;
3121;SDS011;1571;52.524;14.104;2022-08-19T14:18:11;14.13;;;13.10;;
3121;SDS011;1571;52.524;14.104;2022-08-19T14:20:39;15.77;;;14.43;;
3121;SDS011;1571;52.524;14.104;2022-08-19T14:23:09;14.50;;;13.40;;
3121;SDS011;1571;52.524;14.104;2022-08-19T14:25:39;15.60;;;14.37;;
3121;SDS011;1571;52.524;14.104;2022-08-19T14:28:07;14.20;;;13.10;;
3121;SDS011;1571;52.524;14.104;2022-08-19T14:30:36;14.27;;;13.07;;
3121;SDS011;1571;52.524;14.104;2022-08-19T14:33:05;14.83;;;13.63;;
3121;SDS011;1571;52.524;14.104;2022-08-19T14:35:35;13.77;;;12.67;;
3121;SDS011;1571;52.524;14.104;2022-08-19T14:38:05;15.47;;;14.27;;
3121;SDS011;1571;52.524;14.104;2022-08-19T14:40:36;14.13;;;13.13;;
3121;SDS011;1571;52.524;14.104;2022-08-19T14:43:06;16.67;;;14.23;;
3121;SDS011;1571;52.524;14.104;2022-08-19T14:45:35;15.87;;;14.63;;
3121;SDS011;1571;52.524;14.104;2022-08-19T14:48:07;15.40;;;14.13;;
3121;SDS011;1571;52.524;14.104;2022-08-19T14:50:45;15.93;;;14.50;;
3121;SDS011;1571;52.524;14.104;2022-08-19T14:53:13;16.23;;;14.93;;
3121;SDS011;1571;52.524;14.104;2022-08-19T14:55:45;15.80;;;14.50;;
3121;SDS011;1571;52.524;14.104;2022-08-19T14:58:14;16.60;;;15.30;;
3121;SDS011;1571;52.524;14.104;2022-08-19T15:00:56;15.13;;;13.83;;
3121;SDS011;1571;52.524;14.104;2022-08-19T15:03:25;16.23;;;14.83;;